createdAt,value
2018-09-10T00:00:51.378Z,8.30
2018-09-10T00:03:20.233Z,8.60
2018-09-10T00:05:49.090Z,8.97
2018-09-10T00:08:17.922Z,8.73
2018-09-10T00:10:46.783Z,9.17
2018-09-10T00:13:15.611Z,9.07
2018-09-10T00:15:44.446Z,9.20
2018-09-10T00:18:13.331Z,8.43
2018-09-10T00:20:42.251Z,8.53
2018-09-10T00:23:11.126Z,8.43
2018-09-10T00:25:39.978Z,8.20
2018-09-10T00:28:08.865Z,8.37
2018-09-10T00:30:37.758Z,8.23
2018-09-10T00:33:06.625Z,7.83
2018-09-10T00:35:35.474Z,7.60
2018-09-10T00:38:04.562Z,8.20
2018-09-10T00:40:33.403Z,8.17
2018-09-10T00:43:02.699Z,7.73
2018-09-10T00:45:31.603Z,7.90
2018-09-10T00:48:00.446Z,7.37
2018-09-10T00:50:29.290Z,7.60
2018-09-10T00:52:58.107Z,7.40
2018-09-10T00:55:26.935Z,7.40
2018-09-10T00:57:56.015Z,7.50
2018-09-10T01:00:24.879Z,7.27
2018-09-10T01:02:53.711Z,7.40
2018-09-10T01:05:22.675Z,6.77
2018-09-10T01:07:51.515Z,6.87
2018-09-10T01:10:20.370Z,7.20
2018-09-10T01:12:49.194Z,7.10
2018-09-10T01:15:18.102Z,6.80
2018-09-10T01:17:46.964Z,7.00
2018-09-10T01:20:15.835Z,6.50
2018-09-10T01:22:44.690Z,7.30
2018-09-10T01:25:13.604Z,6.90
2018-09-10T01:27:42.558Z,7.50
2018-09-10T01:30:11.379Z,7.10
2018-09-10T01:32:40.227Z,6.70
2018-09-10T01:35:09.043Z,6.37
2018-09-10T01:37:37.844Z,7.40
2018-09-10T01:40:06.808Z,7.10
2018-09-10T01:42:35.646Z,7.20
2018-09-10T01:45:04.674Z,6.73
2018-09-10T01:47:33.630Z,7.27
2018-09-10T01:50:02.482Z,7.20
2018-09-10T01:52:31.531Z,7.13
2018-09-10T01:55:01.215Z,6.70
2018-09-10T01:57:30.043Z,7.53
2018-09-10T01:59:58.918Z,7.30
2018-09-10T02:02:27.738Z,7.10
2018-09-10T02:04:56.614Z,6.80
2018-09-10T02:07:25.494Z,6.80
2018-09-10T02:09:54.448Z,7.27
2018-09-10T02:12:24.174Z,6.80
2018-09-10T02:14:53.909Z,7.70
2018-09-10T02:17:22.839Z,7.17
2018-09-10T02:19:51.663Z,7.10
2018-09-10T02:22:20.895Z,7.20
2018-09-10T02:24:50.199Z,7.00
2018-09-10T02:27:19.102Z,6.90
2018-09-10T02:29:47.975Z,7.10
2018-09-10T02:32:16.956Z,7.07
2018-09-10T02:34:45.907Z,7.00
2018-09-10T02:37:14.846Z,7.00
2018-09-10T02:39:43.666Z,7.33
2018-09-10T02:42:12.717Z,8.10
2018-09-10T02:44:41.555Z,7.57
2018-09-10T02:47:10.902Z,7.50
2018-09-10T02:49:39.770Z,7.90
2018-09-10T02:52:08.797Z,8.00
2018-09-10T02:54:37.878Z,8.27
2018-09-10T02:57:06.826Z,8.20
2018-09-10T02:59:35.701Z,7.83
2018-09-10T03:02:04.694Z,8.57
2018-09-10T03:04:33.646Z,8.20
2018-09-10T03:07:02.546Z,7.30
2018-09-10T03:09:32.003Z,8.63
2018-09-10T03:12:00.854Z,8.00
2018-09-10T03:14:29.727Z,8.40
2018-09-10T03:16:58.570Z,8.70
2018-09-10T03:19:27.454Z,8.47
2018-09-10T03:21:56.310Z,8.63
2018-09-10T03:24:25.308Z,8.73
2018-09-10T03:26:54.487Z,8.73
2018-09-10T03:29:23.340Z,7.77
2018-09-10T03:31:52.221Z,8.43
2018-09-10T03:34:21.083Z,8.13
2018-09-10T03:36:49.919Z,8.33
2018-09-10T03:39:18.832Z,8.10
2018-09-10T03:41:47.654Z,8.47
2018-09-10T03:44:16.874Z,8.63
2018-09-10T03:46:45.710Z,8.27
2018-09-10T03:49:14.693Z,8.00
2018-09-10T03:51:43.539Z,8.80
2018-09-10T03:54:12.362Z,8.47
2018-09-10T03:56:41.207Z,8.67
2018-09-10T03:59:10.262Z,8.20
2018-09-10T04:01:39.099Z,8.87
2018-09-10T04:04:08.001Z,8.87
2018-09-10T04:06:36.893Z,8.30
2018-09-10T04:09:07.191Z,8.33
2018-09-10T04:11:36.119Z,10.00
2018-09-10T04:14:05.022Z,9.13
2018-09-10T04:16:33.935Z,9.73
2018-09-10T04:19:02.886Z,9.93
2018-09-10T04:21:31.807Z,10.20
2018-09-10T04:24:00.614Z,8.70
2018-09-10T04:26:29.539Z,8.23
2018-09-10T04:28:58.391Z,9.37
2018-09-10T04:31:27.309Z,8.93
2018-09-10T04:33:56.134Z,8.63
2018-09-10T04:36:25.127Z,8.37
2018-09-10T04:38:53.955Z,7.77
2018-09-10T04:41:23.427Z,7.20
2018-09-10T04:43:52.258Z,7.43
2018-09-10T04:46:21.324Z,7.10
2018-09-10T04:48:50.208Z,6.47
2018-09-10T04:51:19.241Z,6.47
2018-09-10T04:53:48.096Z,6.93
2018-09-10T04:56:17.040Z,6.87
2018-09-10T04:58:45.898Z,5.83
2018-09-10T05:01:15.017Z,5.70
2018-09-10T05:03:43.870Z,5.90
2018-09-10T05:06:12.693Z,5.40
2018-09-10T05:08:41.547Z,5.07
2018-09-10T05:11:10.434Z,5.07
2018-09-10T05:13:39.308Z,5.10
2018-09-10T05:16:08.203Z,4.17
2018-09-10T05:18:37.091Z,4.97
2018-09-10T05:21:06.054Z,4.80
2018-09-10T05:23:34.920Z,4.13
2018-09-10T05:26:03.901Z,4.13
2018-09-10T05:28:32.799Z,4.47
2018-09-10T05:31:01.671Z,4.63
2018-09-10T05:33:30.533Z,3.80
2018-09-10T05:35:59.435Z,4.40
2018-09-10T05:38:28.447Z,4.00
2018-09-10T05:40:57.327Z,4.33
2018-09-10T05:43:26.275Z,4.80
2018-09-10T05:45:55.146Z,4.70
2018-09-10T05:48:24.277Z,6.67
2018-09-10T05:50:53.163Z,4.77
2018-09-10T05:53:22.358Z,5.17
2018-09-10T05:55:51.234Z,6.03
2018-09-10T05:58:20.103Z,5.50
2018-09-10T06:00:49.066Z,5.73
2018-09-10T06:03:18.196Z,5.17
2018-09-10T06:05:47.151Z,4.37
2018-09-10T06:08:16.007Z,4.47
2018-09-10T06:10:44.908Z,5.10
2018-09-10T06:13:13.814Z,7.00
2018-09-10T06:15:42.662Z,6.53
2018-09-10T06:18:11.499Z,6.50
2018-09-10T06:20:40.362Z,7.07
2018-09-10T06:23:09.292Z,6.90
2018-09-10T06:25:38.175Z,7.33
2018-09-10T06:28:07.084Z,6.87
2018-09-10T06:30:35.964Z,7.80
2018-09-10T06:33:04.834Z,7.77
2018-09-10T06:35:33.760Z,7.80
2018-09-10T06:38:02.683Z,7.70
2018-09-10T06:40:31.611Z,8.13
2018-09-10T06:43:00.616Z,9.30
2018-09-10T06:45:29.777Z,8.97
2018-09-10T06:47:58.645Z,10.80
2018-09-10T06:50:28.118Z,11.23
2018-09-10T06:52:56.931Z,11.40
2018-09-10T06:55:26.074Z,11.20
2018-09-10T06:57:54.996Z,12.27
2018-09-10T07:00:23.972Z,11.07
2018-09-10T07:02:52.863Z,13.57
2018-09-10T07:05:21.739Z,14.80
2018-09-10T07:07:50.805Z,16.10
2018-09-10T07:10:19.731Z,16.47
2018-09-10T07:12:48.662Z,16.00
2018-09-10T07:15:17.519Z,4.10
2018-09-10T07:17:46.495Z,2.80
2018-09-10T07:20:15.370Z,2.43
2018-09-10T07:22:44.211Z,2.07
2018-09-10T07:25:13.515Z,1.90
2018-09-10T07:27:42.374Z,1.73
2018-09-10T07:30:11.263Z,1.50
2018-09-10T07:32:40.094Z,1.60
2018-09-10T07:35:08.942Z,1.73
2018-09-10T07:37:37.802Z,1.30
2018-09-10T07:40:06.742Z,1.30
2018-09-10T07:42:35.695Z,1.03
2018-09-10T07:45:04.639Z,0.97
2018-09-10T07:47:33.495Z,1.40
2018-09-10T07:50:02.331Z,1.20
2018-09-10T07:52:31.298Z,1.33
2018-09-10T07:55:00.240Z,1.70
2018-09-10T07:57:29.685Z,1.10
2018-09-10T07:59:58.603Z,1.40
2018-09-10T08:02:27.655Z,1.40
2018-09-10T08:04:56.516Z,1.30
2018-09-10T08:07:25.390Z,1.62
2018-09-10T08:09:54.479Z,1.70
2018-09-10T08:12:23.446Z,1.10
2018-09-10T08:14:52.506Z,1.03
2018-09-10T08:17:21.376Z,1.00
2018-09-10T08:19:50.301Z,1.27
2018-09-10T08:22:19.178Z,1.00
2018-09-10T08:24:48.042Z,1.07
2018-09-10T08:27:16.944Z,1.30
2018-09-10T08:29:45.829Z,1.27
2018-09-10T08:32:14.766Z,0.90
2018-09-10T08:34:43.682Z,1.20
2018-09-10T08:37:12.626Z,1.07
2018-09-10T08:39:41.522Z,1.00
2018-09-10T08:42:10.598Z,1.07
2018-09-10T08:44:39.481Z,1.27
2018-09-10T08:47:08.464Z,1.00
2018-09-10T08:49:37.382Z,1.30
2018-09-10T08:52:06.211Z,1.10
2018-09-10T08:54:35.608Z,1.50
2018-09-10T08:57:04.071Z,1.90
2018-09-10T08:59:33.042Z,1.30
2018-09-10T09:02:01.955Z,2.07
2018-09-10T09:04:31.055Z,1.60
2018-09-10T09:06:59.870Z,2.20
2018-09-10T09:09:28.707Z,1.50
2018-09-10T09:11:57.510Z,1.60
2018-09-10T09:14:26.351Z,1.33
2018-09-10T09:16:55.201Z,1.10
2018-09-10T09:19:24.022Z,1.40
2018-09-10T09:21:53.422Z,1.20
2018-09-10T09:24:22.233Z,1.00
2018-09-10T09:26:51.103Z,0.67
2018-09-10T09:29:19.944Z,0.80
2018-09-10T09:31:48.763Z,0.87
2018-09-10T09:34:17.634Z,0.80
2018-09-10T09:36:51.877Z,0.67
2018-09-10T09:39:25.866Z,0.70
2018-09-10T09:41:59.867Z,0.60
2018-09-10T09:44:34.003Z,0.87
2018-09-10T09:47:02.899Z,1.00
2018-09-10T09:49:32.039Z,0.90
2018-09-10T09:52:01.162Z,1.43
2018-09-10T09:54:30.032Z,1.00
2018-09-10T09:56:59.031Z,1.00
2018-09-10T09:59:27.891Z,0.93
2018-09-10T10:04:06.330Z,1.50
2018-09-10T10:06:35.171Z,1.57
2018-09-10T10:09:06.589Z,1.67
2018-09-10T10:11:35.462Z,0.80
2018-09-10T10:14:04.770Z,0.90
2018-09-10T10:16:33.780Z,0.80
2018-09-10T10:19:02.611Z,0.70
2018-09-10T10:21:31.458Z,0.67
2018-09-10T10:24:00.482Z,1.30
2018-09-10T10:26:29.371Z,1.17
2018-09-10T10:28:58.216Z,1.40
2018-09-10T10:31:27.083Z,1.93
2018-09-10T10:33:55.891Z,1.70
2018-09-10T10:36:24.795Z,1.10
2018-09-10T10:38:53.814Z,1.13
2018-09-10T10:41:23.035Z,0.90
2018-09-10T10:43:51.944Z,1.17
2018-09-10T10:46:20.763Z,1.13
2018-09-10T10:48:49.626Z,1.00
2018-09-10T10:51:18.447Z,1.30
2018-09-10T10:53:47.309Z,1.60
2018-09-10T10:56:16.222Z,1.70
2018-09-10T10:58:45.468Z,2.67
2018-09-10T11:01:14.414Z,2.43
2018-09-10T11:03:43.307Z,1.87
2018-09-10T11:06:12.174Z,1.27
2018-09-10T11:08:41.062Z,1.27
2018-09-10T11:11:09.943Z,1.20
2018-09-10T11:13:38.807Z,1.40
2018-09-10T11:16:09.087Z,1.07
2018-09-10T11:18:37.914Z,0.80
2018-09-10T11:21:06.807Z,0.80
2018-09-10T11:23:35.659Z,0.93
2018-09-10T11:26:04.514Z,0.70
2018-09-10T11:28:33.411Z,1.00
2018-09-10T11:31:02.255Z,0.80
2018-09-10T11:33:31.421Z,0.80
2018-09-10T11:36:00.271Z,0.70
2018-09-10T11:38:29.088Z,0.87
2018-09-10T11:40:58.047Z,0.70
2018-09-10T11:43:26.935Z,1.07
2018-09-10T11:45:55.752Z,0.80
2018-09-10T11:48:24.578Z,0.87
2018-09-10T11:50:53.611Z,0.80
2018-09-10T11:53:22.443Z,0.63
2018-09-10T11:55:51.315Z,1.03
2018-09-10T11:58:20.150Z,0.80
2018-09-10T12:00:49.146Z,0.80
2018-09-10T12:03:18.015Z,0.73
2018-09-10T12:05:46.895Z,0.53
2018-09-10T12:08:15.852Z,1.00
2018-09-10T12:10:44.746Z,0.67
2018-09-10T12:13:13.776Z,0.90
2018-09-10T12:15:42.604Z,0.80
2018-09-10T12:18:11.453Z,0.80
2018-09-10T12:20:40.279Z,0.70
2018-09-10T12:23:09.159Z,0.80
2018-09-10T12:25:38.034Z,0.80
2018-09-10T12:28:06.878Z,0.80
2018-09-10T12:30:35.695Z,0.90
2018-09-10T12:33:04.567Z,0.60
2018-09-10T12:35:33.334Z,0.70
2018-09-10T12:38:02.168Z,0.77
2018-09-10T12:40:31.205Z,0.90
2018-09-10T12:43:00.210Z,0.70
2018-09-10T12:45:29.088Z,0.90
2018-09-10T12:47:57.864Z,0.80
2018-09-10T12:50:26.690Z,0.80
2018-09-10T12:52:55.793Z,0.60
2018-09-10T12:55:24.568Z,0.43
2018-09-10T12:57:53.432Z,0.73
2018-09-10T13:00:22.330Z,0.77
2018-09-10T13:02:51.328Z,1.20
2018-09-10T13:05:20.233Z,1.20
2018-09-10T13:07:49.154Z,1.10
2018-09-10T13:10:18.004Z,0.80
2018-09-10T13:12:46.876Z,1.17
2018-09-10T13:15:15.668Z,1.00
2018-09-10T13:17:44.480Z,0.97
2018-09-10T13:20:13.292Z,1.00
2018-09-10T13:22:42.462Z,1.33
2018-09-10T13:25:11.300Z,0.97
2018-09-10T13:27:40.175Z,1.23
2018-09-10T13:30:09.172Z,1.27
2018-09-10T13:32:38.376Z,0.90
2018-09-10T13:35:07.405Z,1.40
2018-09-10T13:37:36.269Z,1.00
2018-09-10T13:40:05.207Z,0.93
2018-09-10T13:42:34.030Z,1.33
2018-09-10T13:45:03.299Z,0.90
2018-09-10T13:47:32.099Z,1.10
2018-09-10T13:50:00.963Z,0.93
2018-09-10T13:52:29.891Z,0.93
2018-09-10T13:54:59.239Z,0.73
2018-09-10T13:57:28.064Z,0.70
2018-09-10T13:59:56.941Z,0.70
2018-09-10T14:02:25.804Z,0.93
2018-09-10T14:04:54.877Z,0.60
2018-09-10T14:07:23.756Z,0.70
2018-09-10T14:09:52.661Z,0.87
2018-09-10T14:12:21.508Z,0.70
2018-09-10T14:14:50.456Z,0.80
2018-09-10T14:17:19.279Z,0.87
2018-09-10T14:19:48.117Z,1.03
2018-09-10T14:22:16.955Z,0.83
2018-09-10T14:24:45.744Z,0.80
2018-09-10T14:27:14.633Z,0.80
2018-09-10T14:29:43.468Z,1.00
2018-09-10T14:32:12.343Z,0.50
2018-09-10T14:34:41.234Z,0.70
2018-09-10T14:37:10.084Z,0.80
2018-09-10T14:39:38.992Z,0.90
2018-09-10T14:42:07.935Z,0.80
2018-09-10T14:44:36.714Z,0.50
2018-09-10T14:47:06.044Z,0.63
2018-09-10T14:49:34.876Z,0.50
2018-09-10T14:52:03.659Z,0.80
2018-09-10T14:54:32.476Z,0.67
2018-09-10T14:57:01.275Z,0.67
2018-09-10T14:59:30.096Z,0.80
2018-09-10T15:01:59.180Z,1.00
2018-09-10T15:04:27.968Z,0.80
2018-09-10T15:06:57.361Z,0.60
2018-09-10T15:09:26.136Z,0.80
2018-09-10T15:11:54.963Z,0.70
2018-09-10T15:14:23.858Z,1.33
2018-09-10T15:16:52.638Z,0.70
2018-09-10T15:19:21.620Z,0.70
2018-09-10T15:21:50.419Z,1.07
2018-09-10T15:24:19.235Z,0.73
2018-09-10T15:26:48.001Z,0.80
2018-09-10T15:29:16.823Z,0.93
2018-09-10T15:31:45.651Z,0.87
2018-09-10T15:34:14.436Z,0.70
2018-09-10T15:36:43.228Z,1.00
2018-09-10T15:39:12.008Z,0.80
2018-09-10T15:41:40.807Z,0.70
2018-09-10T15:44:09.568Z,0.87
2018-09-10T15:46:38.385Z,0.60
2018-09-10T15:49:07.747Z,0.50
2018-09-10T15:51:36.507Z,0.53
2018-09-10T15:54:05.276Z,0.47
2018-09-10T15:56:34.116Z,0.80
2018-09-10T15:59:02.977Z,0.70
2018-09-10T16:01:31.733Z,0.70
2018-09-10T16:04:00.491Z,0.80
2018-09-10T16:06:29.300Z,0.80
2018-09-10T16:08:58.271Z,0.50
2018-09-10T16:11:27.011Z,0.57
2018-09-10T16:13:55.839Z,0.50
2018-09-10T16:16:24.621Z,0.60
2018-09-10T16:18:53.432Z,0.60
2018-09-10T16:21:22.288Z,0.60
2018-09-10T16:23:51.136Z,0.67
2018-09-10T16:26:19.952Z,0.50
2018-09-10T16:28:48.790Z,0.70
2018-09-10T16:31:17.590Z,0.50
2018-09-10T16:33:46.452Z,0.50
2018-09-10T16:36:15.352Z,0.77
2018-09-10T16:38:44.135Z,0.67
2018-09-10T16:41:13.036Z,0.67
2018-09-10T16:43:41.772Z,0.80
2018-09-10T16:46:10.662Z,0.70
2018-09-10T16:48:39.515Z,0.50
2018-09-10T16:51:08.664Z,0.80
2018-09-10T16:53:37.467Z,0.53
2018-09-10T16:56:06.404Z,0.73
2018-09-10T16:58:35.224Z,0.70
2018-09-10T17:01:04.072Z,1.00
2018-09-10T17:03:32.911Z,0.93
2018-09-10T17:06:01.768Z,0.57
2018-09-10T17:08:30.575Z,0.87
2018-09-10T17:10:59.503Z,0.70
2018-09-10T17:13:28.299Z,1.03
2018-09-10T17:15:57.147Z,0.80
2018-09-10T17:18:25.912Z,0.70
2018-09-10T17:20:54.752Z,0.97
2018-09-10T17:23:23.564Z,0.80
2018-09-10T17:25:54.079Z,0.70
2018-09-10T17:28:23.032Z,0.83
2018-09-10T17:30:52.432Z,0.90
2018-09-10T17:33:21.252Z,0.73
2018-09-10T17:35:50.360Z,0.50
2018-09-10T17:38:19.144Z,0.60
2018-09-10T17:40:47.962Z,0.70
2018-09-10T17:43:16.797Z,0.50
2018-09-10T17:45:45.604Z,1.00
2018-09-10T17:48:14.431Z,0.50
2018-09-10T17:50:43.339Z,0.93
2018-09-10T17:53:12.468Z,0.70
2018-09-10T17:55:41.231Z,0.77
2018-09-10T17:58:10.068Z,0.93
2018-09-10T18:00:40.296Z,0.87
2018-09-10T18:03:10.735Z,0.80
2018-09-10T18:05:39.524Z,0.73
2018-09-10T18:08:08.384Z,0.70
2018-09-10T18:10:37.441Z,0.63
2018-09-10T18:13:06.638Z,0.60
2018-09-10T18:15:35.504Z,0.80
2018-09-10T18:18:04.912Z,0.83
2018-09-10T18:20:34.223Z,1.10
2018-09-10T18:23:02.963Z,0.67
2018-09-10T18:25:31.828Z,0.70
2018-09-10T18:28:00.630Z,0.70
2018-09-10T18:30:29.443Z,0.90
2018-09-10T18:32:58.228Z,0.90
2018-09-10T18:35:27.036Z,0.77
2018-09-10T18:37:55.925Z,1.02
2018-09-10T18:40:24.769Z,1.10
2018-09-10T18:42:53.571Z,1.23
2018-09-10T18:45:22.320Z,1.20
2018-09-10T18:47:51.146Z,1.10
2018-09-10T18:50:19.920Z,1.33
2018-09-10T18:52:48.735Z,1.17
2018-09-10T18:55:17.936Z,1.03
2018-09-10T18:57:46.709Z,1.27
2018-09-10T19:00:15.592Z,1.30
2018-09-10T19:02:44.349Z,1.40
2018-09-10T19:05:13.137Z,1.60
2018-09-10T19:07:41.917Z,1.70
2018-09-10T19:10:10.873Z,1.70
2018-09-10T19:12:40.498Z,1.43
2018-09-10T19:15:09.629Z,1.77
2018-09-10T19:17:38.477Z,1.90
2018-09-10T19:20:07.408Z,1.60
2018-09-10T19:22:36.219Z,1.97
2018-09-10T19:25:05.133Z,1.70
2018-09-10T19:27:34.232Z,1.50
2018-09-10T19:30:03.068Z,1.50
2018-09-10T19:32:31.964Z,1.30
2018-09-10T19:35:00.768Z,1.43
2018-09-10T19:37:29.573Z,1.40
2018-09-10T19:39:58.407Z,1.80
2018-09-10T19:42:27.225Z,1.60
2018-09-10T19:44:56.364Z,1.83
2018-09-10T19:47:25.244Z,1.50
2018-09-10T19:49:54.037Z,1.63
2018-09-10T19:52:22.836Z,2.03
2018-09-10T19:54:51.648Z,2.13
2018-09-10T19:57:20.633Z,1.93
2018-09-10T19:59:49.432Z,1.83
2018-09-10T20:02:18.239Z,2.03
2018-09-10T20:04:47.003Z,2.00
2018-09-10T20:07:15.751Z,1.90
2018-09-10T20:09:44.595Z,1.97
2018-09-10T20:12:13.357Z,2.23
2018-09-10T20:14:42.131Z,1.87
2018-09-10T20:17:11.132Z,1.87
2018-09-10T20:19:39.900Z,1.77
2018-09-10T20:22:08.864Z,1.90
2018-09-10T20:24:37.620Z,1.90
2018-09-10T20:27:06.419Z,1.97
2018-09-10T20:29:35.408Z,2.10
2018-09-10T20:32:04.188Z,2.00
2018-09-10T20:34:32.972Z,2.57
2018-09-10T20:37:01.743Z,1.87
2018-09-10T20:39:30.559Z,1.80
2018-09-10T20:41:59.340Z,2.47
2018-09-10T20:44:28.144Z,2.30
2018-09-10T20:46:56.903Z,2.00
2018-09-10T20:49:25.664Z,2.17
2018-09-10T20:51:54.453Z,2.27
2018-09-10T20:54:23.256Z,2.10
2018-09-10T20:56:52.009Z,2.07
2018-09-10T20:59:20.928Z,2.67
2018-09-10T21:01:50.121Z,1.87
2018-09-10T21:04:18.892Z,2.40
2018-09-10T21:06:47.684Z,2.10
2018-09-10T21:09:16.469Z,2.00
2018-09-10T21:11:45.232Z,2.43
2018-09-10T21:14:14.043Z,2.00
2018-09-10T21:16:42.915Z,2.20
2018-09-10T21:19:11.839Z,2.20
2018-09-10T21:21:40.630Z,2.47
2018-09-10T21:24:09.372Z,2.40
2018-09-10T21:26:38.127Z,2.20
2018-09-10T21:29:06.897Z,2.20
2018-09-10T21:31:35.676Z,1.93
2018-09-10T21:34:04.887Z,2.30
2018-09-10T21:36:33.668Z,2.20
2018-09-10T21:39:02.427Z,2.10
2018-09-10T21:41:31.230Z,2.10
2018-09-10T21:44:00.000Z,2.23
2018-09-10T21:46:28.783Z,2.33
2018-09-10T21:48:57.560Z,2.17
2018-09-10T21:51:26.532Z,2.67
2018-09-10T21:53:55.323Z,2.10
2018-09-10T21:56:24.069Z,2.30
2018-09-10T21:58:52.832Z,2.23
2018-09-10T22:01:21.940Z,2.10
2018-09-10T22:03:50.700Z,2.17
2018-09-10T22:06:19.480Z,2.57
2018-09-10T22:08:48.592Z,2.43
2018-09-10T22:11:17.409Z,2.10
2018-09-10T22:13:46.228Z,2.10
2018-09-10T22:16:15.034Z,2.40
2018-09-10T22:18:43.804Z,2.17
2018-09-10T22:21:12.782Z,2.17
2018-09-10T22:23:41.608Z,1.67
2018-09-10T22:26:10.649Z,1.93
2018-09-10T22:28:39.424Z,1.90
2018-09-10T22:31:08.204Z,2.00
2018-09-10T22:33:36.968Z,1.67
2018-09-10T22:36:05.820Z,1.90
2018-09-10T22:38:34.575Z,1.73
2018-09-10T22:41:03.356Z,2.30
2018-09-10T22:43:32.124Z,1.83
2018-09-10T22:46:00.905Z,2.17
2018-09-10T22:48:29.664Z,1.80
2018-09-10T22:50:58.426Z,2.00
2018-09-10T22:53:27.234Z,2.10
2018-09-10T22:55:55.975Z,1.90
2018-09-10T22:58:25.096Z,1.87
2018-09-10T23:00:53.861Z,2.27
2018-09-10T23:03:22.955Z,1.60
2018-09-10T23:05:51.745Z,2.00
2018-09-10T23:08:20.516Z,1.93
2018-09-10T23:10:49.271Z,1.90
2018-09-10T23:13:18.042Z,1.73
2018-09-10T23:15:47.018Z,2.60
2018-09-10T23:18:15.788Z,1.80
2018-09-10T23:20:44.567Z,2.57
2018-09-10T23:23:13.487Z,2.20
2018-09-10T23:25:42.332Z,2.20
2018-09-10T23:28:11.166Z,2.33
2018-09-10T23:30:39.957Z,1.97
2018-09-10T23:33:09.132Z,1.63
2018-09-10T23:35:37.899Z,1.90
2018-09-10T23:38:06.764Z,1.93
2018-09-10T23:40:35.533Z,2.23
2018-09-10T23:43:04.307Z,2.20
2018-09-10T23:45:33.068Z,2.23
2018-09-10T23:48:01.854Z,1.80
2018-09-10T23:50:30.612Z,2.00
2018-09-10T23:52:59.384Z,2.60
2018-09-10T23:55:28.148Z,2.20
2018-09-10T23:57:56.920Z,2.47
